Time;durP1;ratioP1;P1;durP2;ratioP2;P2;SDS_P1;SDS_P2;PMS_P1;PMS_P2;Temp;Humidity;BMP_temperature;BMP_pressure;BME280_temperature;BME280_humidity;BME280_pressure;Samples;Min_cycle;Max_cycle;Signal;HPM_P1;HPM_P2
2024/01/02 00:01:06;;;;;;;1.23;0.60;;;;;;;;;;5018735;28;20562;-66
2024/01/02 00:03:34;;;;;;;0.90;0.60;;;;;;;;;;5002339;28;20245;-66
2024/01/02 00:06:01;;;;;;;1.13;0.70;;;;;;;;;;5018286;28;20214;-66
2024/01/02 00:08:29;;;;;;;1.55;0.88;;;;;;;;;;5018528;28;20213;-66
2024/01/02 00:10:58;;;;;;;1.00;0.60;;;;;;;;;;5018838;28;20213;-66
2024/01/02 00:13:25;;;;;;;0.95;0.60;;;;;;;;;;5018518;28;20230;-66
2024/01/02 00:15:53;;;;;;;1.92;0.85;;;;;;;;;;5018428;28;20682;-66
2024/01/02 00:18:20;;;;;;;1.20;0.73;;;;;;;;;;5017674;28;20268;-66
2024/01/02 00:20:48;;;;;;;1.20;0.70;;;;;;;;;;5018833;28;20492;-66
2024/01/02 00:23:16;;;;;;;1.23;0.70;;;;;;;;;;5018437;28;20232;-66
2024/01/02 00:25:44;;;;;;;0.85;0.70;;;;;;;;;;5018366;28;20604;-66
2024/01/02 00:28:13;;;;;;;1.35;0.73;;;;;;;;;;5018384;28;20202;-66
2024/01/02 00:30:41;;;;;;;1.33;0.70;;;;;;;;;;5018288;28;20513;-66
2024/01/02 00:33:08;;;;;;;1.92;0.60;;;;;;;;;;5018758;28;20207;-66
2024/01/02 00:35:35;;;;;;;1.55;0.75;;;;;;;;;;5018358;28;20272;-65
2024/01/02 00:38:03;;;;;;;1.25;0.65;;;;;;;;;;5018731;28;20321;-65
2024/01/02 00:40:31;;;;;;;0.63;0.50;;;;;;;;;;5018814;28;20296;-65
2024/01/02 00:42:58;;;;;;;1.33;0.80;;;;;;;;;;5018316;28;20206;-66
2024/01/02 00:45:27;;;;;;;1.25;0.73;;;;;;;;;;5018293;28;20301;-66
2024/01/02 00:47:55;;;;;;;1.23;0.60;;;;;;;;;;5018940;28;20560;-65
2024/01/02 00:50:23;;;;;;;1.00;0.52;;;;;;;;;;5018315;28;20584;-65
2024/01/02 00:52:50;;;;;;;1.17;0.73;;;;;;;;;;5018528;28;20577;-65
2024/01/02 00:55:18;;;;;;;1.13;0.70;;;;;;;;;;5018684;28;20206;-66
2024/01/02 00:57:46;;;;;;;1.48;0.77;;;;;;;;;;5018110;28;20226;-66
2024/01/02 01:00:14;;;;;;;1.13;0.50;;;;;;;;;;5018887;28;20214;-66
2024/01/02 01:02:42;;;;;;;0.70;0.60;;;;;;;;;;5018825;28;20233;-65
2024/01/02 01:05:10;;;;;;;1.15;0.70;;;;;;;;;;5018868;28;20272;-66
2024/01/02 01:07:37;;;;;;;1.48;0.60;;;;;;;;;;5018272;28;20507;-66
2024/01/02 01:10:05;;;;;;;2.45;0.60;;;;;;;;;;5018607;28;20546;-66
2024/01/02 01:12:33;;;;;;;1.75;0.70;;;;;;;;;;5018531;28;20212;-65
2024/01/02 01:15:00;;;;;;;1.33;0.70;;;;;;;;;;5018711;28;20683;-66
2024/01/02 01:17:28;;;;;;;1.40;0.70;;;;;;;;;;5018898;28;20285;-64
2024/01/02 01:19:57;;;;;;;0.50;0.50;;;;;;;;;;5018384;28;20242;-64
2024/01/02 01:22:25;;;;;;;0.98;0.60;;;;;;;;;;5018922;28;20255;-64
2024/01/02 01:24:53;;;;;;;1.58;0.70;;;;;;;;;;5018600;28;20198;-64
2024/01/02 01:27:20;;;;;;;0.93;0.50;;;;;;;;;;5017892;28;20492;-64
2024/01/02 01:29:47;;;;;;;2.03;0.80;;;;;;;;;;5018003;28;20202;-64
2024/01/02 01:32:15;;;;;;;1.23;0.90;;;;;;;;;;5017519;28;20261;-64
2024/01/02 01:34:42;;;;;;;2.08;0.57;;;;;;;;;;5018144;28;20210;-64
2024/01/02 01:37:11;;;;;;;1.25;0.82;;;;;;;;;;5017897;28;20283;-64
2024/01/02 01:39:39;;;;;;;1.00;0.63;;;;;;;;;;5018140;28;20226;-64
2024/01/02 01:42:07;;;;;;;0.85;0.65;;;;;;;;;;5017855;28;20214;-64
2024/01/02 01:44:35;;;;;;;0.73;0.68;;;;;;;;;;5018029;28;20480;-64
2024/01/02 01:47:04;;;;;;;1.13;0.65;;;;;;;;;;5018160;28;20256;-64
2024/01/02 01:49:32;;;;;;;1.27;0.90;;;;;;;;;;5018153;28;20202;-64
2024/01/02 01:52:00;;;;;;;0.98;0.60;;;;;;;;;;5018235;28;20214;-66
2024/01/02 01:54:29;;;;;;;1.52;0.70;;;;;;;;;;5018255;28;20265;-66
2024/01/02 01:56:57;;;;;;;0.88;0.70;;;;;;;;;;5018213;28;20210;-64
2024/01/02 01:59:25;;;;;;;0.63;0.50;;;;;;;;;;5017612;28;20317;-66
2024/01/02 02:01:52;;;;;;;1.20;0.52;;;;;;;;;;5017747;28;20237;-66
2024/01/02 02:04:21;;;;;;;0.80;0.70;;;;;;;;;;5017323;28;20206;-66
2024/01/02 02:06:49;;;;;;;1.08;0.75;;;;;;;;;;5017492;28;20210;-66
2024/01/02 02:09:17;;;;;;;1.05;0.70;;;;;;;;;;5017194;28;20238;-66
2024/01/02 02:11:46;;;;;;;0.80;0.60;;;;;;;;;;5017162;28;20221;-66
2024/01/02 02:14:14;;;;;;;0.70;0.70;;;;;;;;;;5017633;28;20252;-66
2024/01/02 02:16:43;;;;;;;0.93;0.70;;;;;;;;;;5017736;28;20214;-66
2024/01/02 02:19:10;;;;;;;0.68;0.65;;;;;;;;;;5016953;28;20249;-66
2024/01/02 02:21:38;;;;;;;1.10;0.70;;;;;;;;;;5017119;28;20305;-66
2024/01/02 02:24:07;;;;;;;1.00;0.70;;;;;;;;;;5017236;28;20213;-66
2024/01/02 02:26:34;;;;;;;0.82;0.60;;;;;;;;;;5017487;28;20857;-66
2024/01/02 02:29:02;;;;;;;0.80;0.50;;;;;;;;;;5017171;28;20210;-66
2024/01/02 02:31:30;;;;;;;0.80;0.65;;;;;;;;;;5017480;28;20206;-66
2024/01/02 02:33:58;;;;;;;0.82;0.50;;;;;;;;;;5017243;28;20245;-66
2024/01/02 02:36:26;;;;;;;0.75;0.57;;;;;;;;;;5017614;28;20297;-65
2024/01/02 02:38:53;;;;;;;2.15;0.75;;;;;;;;;;5016505;28;20237;-66
2024/01/02 02:41:22;;;;;;;1.33;0.55;;;;;;;;;;5016508;28;20207;-66
2024/01/02 02:43:50;;;;;;;0.80;0.50;;;;;;;;;;5016613;28;20214;-66
2024/01/02 02:46:18;;;;;;;0.77;0.75;;;;;;;;;;5020214;28;20238;-65
2024/01/02 02:48:45;;;;;;;2.00;0.70;;;;;;;;;;5020762;28;20270;-65
2024/01/02 02:51:13;;;;;;;0.65;0.50;;;;;;;;;;5020567;28;20683;-65
2024/01/02 02:53:40;;;;;;;0.57;0.50;;;;;;;;;;5020563;28;20314;-65
2024/01/02 02:56:08;;;;;;;1.05;0.55;;;;;;;;;;5020568;28;20555;-65
2024/01/02 02:58:38;;;;;;;0.68;0.60;;;;;;;;;;5020286;28;20616;-66
2024/01/02 03:01:05;;;;;;;0.77;0.70;;;;;;;;;;5020189;28;20810;-66
2024/01/02 03:03:33;;;;;;;1.70;0.90;;;;;;;;;;5020198;28;20268;-66
2024/01/02 03:06:00;;;;;;;1.20;0.50;;;;;;;;;;5020456;28;20207;-66
2024/01/02 03:08:27;;;;;;;0.90;0.60;;;;;;;;;;5020515;28;20206;-66
2024/01/02 03:10:59;;;;;;;1.25;0.50;;;;;;;;;;5020048;28;20213;-66
2024/01/02 03:13:28;;;;;;;0.75;0.50;;;;;;;;;;5020140;28;20584;-66
2024/01/02 03:15:57;;;;;;;0.65;0.65;;;;;;;;;;5020214;28;20207;-66
2024/01/02 03:18:24;;;;;;;0.77;0.40;;;;;;;;;;5019890;28;20241;-65
2024/01/02 03:20:52;;;;;;;1.25;0.65;;;;;;;;;;5020091;28;20210;-65
2024/01/02 03:23:19;;;;;;;0.70;0.55;;;;;;;;;;5019676;28;20618;-65
2024/01/02 03:25:47;;;;;;;1.20;0.60;;;;;;;;;;5019954;28;20551;-65
2024/01/02 03:28:15;;;;;;;1.42;0.50;;;;;;;;;;5019748;28;20207;-65
2024/01/02 03:30:42;;;;;;;0.88;0.73;;;;;;;;;;5019960;28;20252;-65
2024/01/02 03:33:11;;;;;;;1.23;0.63;;;;;;;;;;5019955;28;20241;-65
2024/01/02 03:35:38;;;;;;;0.63;0.52;;;;;;;;;;5020055;28;20214;-65
2024/01/02 03:38:06;;;;;;;1.88;0.80;;;;;;;;;;5019453;28;20233;-65
2024/01/02 03:40:34;;;;;;;0.85;0.60;;;;;;;;;;5019708;28;20705;-65
2024/01/02 03:43:01;;;;;;;1.08;0.70;;;;;;;;;;5019642;28;20680;-65
2024/01/02 03:45:28;;;;;;;0.50;0.50;;;;;;;;;;5019423;28;20244;-65
2024/01/02 03:47:56;;;;;;;1.38;0.60;;;;;;;;;;5019464;28;20563;-65
2024/01/02 03:50:25;;;;;;;0.85;0.65;;;;;;;;;;5019634;28;20234;-66
2024/01/02 03:52:52;;;;;;;1.02;0.70;;;;;;;;;;5019685;28;20218;-66
2024/01/02 03:55:20;;;;;;;1.02;0.52;;;;;;;;;;5019183;28;20501;-66
2024/01/02 03:57:48;;;;;;;1.35;0.70;;;;;;;;;;5019538;28;20301;-66
2024/01/02 04:00:15;;;;;;;0.80;0.60;;;;;;;;;;5019223;28;20486;-66
2024/01/02 04:02:43;;;;;;;0.85;0.52;;;;;;;;;;5019285;28;20210;-66
2024/01/02 04:05:10;;;;;;;0.75;0.55;;;;;;;;;;5019544;28;20269;-66
2024/01/02 04:07:39;;;;;;;1.25;0.65;;;;;;;;;;5019665;28;20547;-66
2024/01/02 04:10:07;;;;;;;0.63;0.50;;;;;;;;;;5019055;28;20198;-66
2024/01/02 04:12:35;;;;;;;1.70;0.60;;;;;;;;;;5018871;28;20206;-66
2024/01/02 04:15:02;;;;;;;0.85;0.65;;;;;;;;;;5019450;28;20210;-66
2024/01/02 04:17:30;;;;;;;1.33;0.68;;;;;;;;;;5018752;28;20217;-66
2024/01/02 04:19:57;;;;;;;0.95;0.63;;;;;;;;;;5018747;28;20480;-66
2024/01/02 04:22:25;;;;;;;0.50;0.50;;;;;;;;;;5019125;28;20212;-65
2024/01/02 04:24:54;;;;;;;0.95;0.60;;;;;;;;;;5017903;28;20289;-65
2024/01/02 04:27:21;;;;;;;0.88;0.52;;;;;;;;;;5018562;28;20206;-65
2024/01/02 04:29:48;;;;;;;0.85;0.57;;;;;;;;;;5018904;28;20257;-65
2024/01/02 04:32:16;;;;;;;1.02;0.43;;;;;;;;;;5018418;28;20796;-66
2024/01/02 04:34:44;;;;;;;0.77;0.40;;;;;;;;;;5018633;28;20202;-66
2024/01/02 04:37:12;;;;;;;0.65;0.52;;;;;;;;;;5018614;28;20214;-66
2024/01/02 04:39:39;;;;;;;0.95;0.63;;;;;;;;;;5018306;28;20320;-66
2024/01/02 04:42:08;;;;;;;1.20;0.50;;;;;;;;;;5018673;28;20207;-66
2024/01/02 04:44:35;;;;;;;0.50;0.40;;;;;;;;;;5018508;28;20216;-65
2024/01/02 04:47:03;;;;;;;1.75;0.55;;;;;;;;;;5018554;28;20293;-65
2024/01/02 04:49:31;;;;;;;0.50;0.50;;;;;;;;;;5018759;28;20280;-65
2024/01/02 04:51:58;;;;;;;0.50;0.50;;;;;;;;;;5018698;28;20206;-65
2024/01/02 04:54:26;;;;;;;0.60;0.60;;;;;;;;;;5018110;28;20589;-66
2024/01/02 04:56:54;;;;;;;0.88;0.50;;;;;;;;;;5018255;28;20268;-66
2024/01/02 04:59:23;;;;;;;1.50;0.57;;;;;;;;;;5017801;28;20230;-66
2024/01/02 05:01:51;;;;;;;0.75;0.70;;;;;;;;;;5017811;28;20237;-66
2024/01/02 05:04:18;;;;;;;0.47;0.40;;;;;;;;;;5018014;28;20206;-66
2024/01/02 05:06:46;;;;;;;1.35;0.70;;;;;;;;;;5016951;28;20588;-66
2024/01/02 05:09:13;;;;;;;0.60;0.60;;;;;;;;;;5017065;28;20547;-65
2024/01/02 05:11:40;;;;;;;0.73;0.60;;;;;;;;;;5017923;28;20206;-65
2024/01/02 05:14:08;;;;;;;0.77;0.50;;;;;;;;;;5017334;28;20206;-66
2024/01/02 05:16:36;;;;;;;1.33;0.60;;;;;;;;;;5017029;28;20210;-66
2024/01/02 05:19:04;;;;;;;0.95;0.50;;;;;;;;;;5017217;28;20508;-65
2024/01/02 05:21:31;;;;;;;0.40;0.40;;;;;;;;;;5017606;28;20214;-65
2024/01/02 05:23:58;;;;;;;0.77;0.63;;;;;;;;;;5017480;28;20206;-66
2024/01/02 05:26:25;;;;;;;0.70;0.52;;;;;;;;;;5017866;28;20206;-66
2024/01/02 05:28:53;;;;;;;1.02;0.68;;;;;;;;;;5016844;28;20214;-66
2024/01/02 05:31:20;;;;;;;0.90;0.52;;;;;;;;;;5017224;28;20214;-66
2024/01/02 05:33:49;;;;;;;0.75;0.60;;;;;;;;;;5017053;28;20207;-66
2024/01/02 05:36:16;;;;;;;0.80;0.60;;;;;;;;;;5017252;28;20217;-66
2024/01/02 05:38:44;;;;;;;0.90;0.60;;;;;;;;;;5016663;28;20210;-66
2024/01/02 05:41:11;;;;;;;0.60;0.50;;;;;;;;;;5016867;28;20229;-65
2024/01/02 05:43:39;;;;;;;1.33;0.57;;;;;;;;;;5016610;28;20455;-66
2024/01/02 05:46:06;;;;;;;1.20;0.60;;;;;;;;;;5016269;28;20206;-65
2024/01/02 05:48:34;;;;;;;1.23;0.65;;;;;;;;;;5016404;28;20592;-65
2024/01/02 05:51:04;;;;;;;0.88;0.47;;;;;;;;;;5016931;28;20213;-66
2024/01/02 05:53:32;;;;;;;0.70;0.57;;;;;;;;;;5016872;28;20206;-66
2024/01/02 05:55:59;;;;;;;0.70;0.52;;;;;;;;;;5016052;28;20214;-65
2024/01/02 05:58:27;;;;;;;1.05;0.60;;;;;;;;;;5016236;28;20213;-66
2024/01/02 06:00:54;;;;;;;0.57;0.50;;;;;;;;;;5016489;28;20230;-66
2024/01/02 06:03:22;;;;;;;0.60;0.50;;;;;;;;;;5016511;28;20230;-66
2024/01/02 06:05:49;;;;;;;0.88;0.50;;;;;;;;;;5016078;28;20214;-66
2024/01/02 06:08:17;;;;;;;0.80;0.50;;;;;;;;;;5016771;28;20214;-66
2024/01/02 06:10:45;;;;;;;0.40;0.30;;;;;;;;;;5016739;28;20202;-66
2024/01/02 06:13:13;;;;;;;0.93;0.57;;;;;;;;;;5016455;28;20453;-66
2024/01/02 06:15:40;;;;;;;1.17;0.50;;;;;;;;;;5016825;28;20206;-66
2024/01/02 06:18:08;;;;;;;0.60;0.50;;;;;;;;;;5016067;28;20234;-66
2024/01/02 06:20:35;;;;;;;0.50;0.50;;;;;;;;;;5020619;28;20650;-65
2024/01/02 06:23:02;;;;;;;0.77;0.45;;;;;;;;;;5019412;28;20206;-66
2024/01/02 06:25:31;;;;;;;0.40;0.40;;;;;;;;;;5020119;28;20233;-66
2024/01/02 06:27:59;;;;;;;0.80;0.40;;;;;;;;;;5020446;28;20214;-66
2024/01/02 06:30:26;;;;;;;1.10;0.60;;;;;;;;;;5020050;28;20217;-66
2024/01/02 06:32:54;;;;;;;0.63;0.50;;;;;;;;;;5020191;28;20211;-66
2024/01/02 06:35:21;;;;;;;0.60;0.47;;;;;;;;;;5020254;28;20206;-66
2024/01/02 06:37:49;;;;;;;0.88;0.60;;;;;;;;;;5020898;28;20210;-66
2024/01/02 06:40:16;;;;;;;1.75;0.55;;;;;;;;;;5020671;28;20230;-66
2024/01/02 06:42:45;;;;;;;1.15;0.50;;;;;;;;;;5019762;28;20222;-66
2024/01/02 06:45:12;;;;;;;0.80;0.60;;;;;;;;;;5019894;28;20206;-66
2024/01/02 06:47:40;;;;;;;1.85;0.70;;;;;;;;;;5019974;28;20217;-66
2024/01/02 06:50:08;;;;;;;1.52;0.80;;;;;;;;;;5019743;28;20221;-66
2024/01/02 06:52:36;;;;;;;2.78;0.80;;;;;;;;;;5019703;28;20221;-66
2024/01/02 06:55:04;;;;;;;1.40;0.90;;;;;;;;;;5019470;28;20202;-66
2024/01/02 06:57:31;;;;;;;1.55;0.85;;;;;;;;;;5019502;28;20308;-65
2024/01/02 06:59:59;;;;;;;4.35;1.00;;;;;;;;;;5020002;28;20231;-65
2024/01/02 07:02:29;;;;;;;1.55;0.82;;;;;;;;;;5019856;28;20213;-65
2024/01/02 07:04:56;;;;;;;2.20;0.98;;;;;;;;;;5019975;28;20211;-65
2024/01/02 07:07:24;;;;;;;3.33;1.23;;;;;;;;;;5019398;28;20214;-66
2024/01/02 07:09:51;;;;;;;3.70;1.25;;;;;;;;;;5019171;28;20231;-66
2024/01/02 07:12:19;;;;;;;2.63;1.52;;;;;;;;;;5019211;28;20206;-66
2024/01/02 07:14:47;;;;;;;2.67;1.30;;;;;;;;;;5019384;28;20245;-66
2024/01/02 07:17:19;;;;;;;3.28;1.50;;;;;;;;;;5019449;28;20241;-66
2024/01/02 07:19:46;;;;;;;4.65;1.48;;;;;;;;;;5018780;28;20253;-66
2024/01/02 07:22:14;;;;;;;2.58;1.30;;;;;;;;;;5019113;28;20214;-66
2024/01/02 07:24:41;;;;;;;2.90;1.45;;;;;;;;;;5018621;28;20214;-66
2024/01/02 07:27:08;;;;;;;2.30;1.42;;;;;;;;;;5019388;28;20601;-65
2024/01/02 07:29:35;;;;;;;3.85;1.42;;;;;;;;;;5019120;28;20210;-66
2024/01/02 07:32:03;;;;;;;3.17;1.55;;;;;;;;;;5019042;28;20206;-66
2024/01/02 07:34:32;;;;;;;3.75;1.33;;;;;;;;;;5019084;28;20206;-66
2024/01/02 07:36:59;;;;;;;3.65;1.50;;;;;;;;;;5019323;28;20214;-66
2024/01/02 07:39:27;;;;;;;4.63;1.38;;;;;;;;;;5019114;28;20210;-66
2024/01/02 07:41:54;;;;;;;2.72;1.58;;;;;;;;;;5019073;28;20706;-66
2024/01/02 07:44:22;;;;;;;2.38;1.45;;;;;;;;;;5019129;28;20512;-66
2024/01/02 07:46:49;;;;;;;3.42;1.40;;;;;;;;;;5018524;28;20581;-66
2024/01/02 07:49:17;;;;;;;2.65;1.45;;;;;;;;;;5018961;28;20206;-66
2024/01/02 07:51:46;;;;;;;3.22;1.35;;;;;;;;;;5018745;28;20209;-66
2024/01/02 07:54:13;;;;;;;5.25;1.75;;;;;;;;;;5018704;28;20217;-66
2024/01/02 07:56:41;;;;;;;4.43;1.70;;;;;;;;;;5018789;28;20600;-66
2024/01/02 07:59:08;;;;;;;4.78;1.80;;;;;;;;;;5018398;28;20207;-66
2024/01/02 08:01:35;;;;;;;3.72;1.65;;;;;;;;;;5018367;28;20233;-66
2024/01/02 08:04:03;;;;;;;3.67;1.48;;;;;;;;;;5018068;28;20214;-66
2024/01/02 08:06:30;;;;;;;4.18;1.60;;;;;;;;;;5018651;28;20207;-66
2024/01/02 08:08:59;;;;;;;3.70;1.63;;;;;;;;;;5017215;28;20296;-66
2024/01/02 08:11:27;;;;;;;3.28;1.50;;;;;;;;;;5017856;28;20206;-66
2024/01/02 08:13:54;;;;;;;4.10;1.65;;;;;;;;;;5018153;28;20606;-66
2024/01/02 08:16:22;;;;;;;3.47;1.70;;;;;;;;;;5017674;28;20233;-66
2024/01/02 08:18:50;;;;;;;4.47;1.60;;;;;;;;;;5017806;28;20751;-66
2024/01/02 08:21:17;;;;;;;3.95;1.90;;;;;;;;;;5018008;28;20238;-65
2024/01/02 08:23:44;;;;;;;2.38;1.33;;;;;;;;;;5018111;28;20206;-65
2024/01/02 08:26:14;;;;;;;3.38;1.60;;;;;;;;;;5017247;28;20210;-66
2024/01/02 08:28:42;;;;;;;2.47;1.40;;;;;;;;;;5017836;28;20623;-66
2024/01/02 08:31:09;;;;;;;2.75;1.40;;;;;;;;;;5017619;28;20211;-66
2024/01/02 08:33:36;;;;;;;3.40;1.45;;;;;;;;;;5017161;28;20209;-66
2024/01/02 08:36:06;;;;;;;2.90;1.80;;;;;;;;;;5017817;28;20218;-66
2024/01/02 08:38:33;;;;;;;3.58;1.70;;;;;;;;;;5018099;28;20217;-66
2024/01/02 08:41:00;;;;;;;2.53;1.48;;;;;;;;;;5017344;28;20223;-66
2024/01/02 08:43:30;;;;;;;3.35;1.60;;;;;;;;;;5015522;28;20214;-66
2024/01/02 08:45:57;;;;;;;3.53;1.60;;;;;;;;;;5017653;28;20214;-66
2024/01/02 08:48:24;;;;;;;3.33;1.48;;;;;;;;;;5017389;28;20206;-66
2024/01/02 08:50:52;;;;;;;3.20;1.50;;;;;;;;;;5017514;28;20230;-65
2024/01/02 08:53:19;;;;;;;2.53;1.27;;;;;;;;;;5017342;28;20214;-65
2024/01/02 08:55:47;;;;;;;2.63;1.50;;;;;;;;;;5017134;28;20206;-66
2024/01/02 08:58:14;;;;;;;3.67;1.20;;;;;;;;;;5017651;28;20276;-66
2024/01/02 09:00:43;;;;;;;3.10;1.40;;;;;;;;;;5017057;28;20307;-66
2024/01/02 09:03:10;;;;;;;3.05;1.33;;;;;;;;;;5017205;28;20214;-66
2024/01/02 09:05:38;;;;;;;2.38;1.27;;;;;;;;;;5017106;28;20503;-66
2024/01/02 09:08:05;;;;;;;2.97;1.50;;;;;;;;;;5017176;28;20229;-66
2024/01/02 09:10:33;;;;;;;3.20;1.40;;;;;;;;;;5017365;28;20202;-65
2024/01/02 09:13:02;;;;;;;2.35;1.30;;;;;;;;;;5016689;28;20206;-66
2024/01/02 09:15:30;;;;;;;2.95;1.33;;;;;;;;;;5016710;28;20238;-66
2024/01/02 09:17:59;;;;;;;3.30;1.42;;;;;;;;;;5016718;28;20284;-66
2024/01/02 09:20:26;;;;;;;2.97;1.50;;;;;;;;;;5016236;28;20230;-66
2024/01/02 09:22:54;;;;;;;2.30;1.30;;;;;;;;;;5016593;28;20206;-66
2024/01/02 09:25:25;;;;;;;2.47;1.38;;;;;;;;;;5016295;28;20501;-66
2024/01/02 09:27:55;;;;;;;2.83;1.20;;;;;;;;;;5017127;28;20234;-66
2024/01/02 09:30:23;;;;;;;2.78;1.38;;;;;;;;;;5016717;28;20234;-66
2024/01/02 09:32:50;;;;;;;1.60;1.23;;;;;;;;;;5016676;28;20257;-66
2024/01/02 09:35:19;;;;;;;2.67;1.25;;;;;;;;;;5016390;28;20225;-66
2024/01/02 09:37:47;;;;;;;2.65;1.40;;;;;;;;;;5016022;28;20573;-66
2024/01/02 09:40:18;;;;;;;3.22;1.27;;;;;;;;;;5015729;28;20210;-66
2024/01/02 09:42:50;;;;;;;1.75;1.00;;;;;;;;;;5016549;28;20214;-66
2024/01/02 09:45:25;;;;;;;1.38;1.10;;;;;;;;;;5016145;28;20214;-66
2024/01/02 09:48:00;;;;;;;1.98;1.10;;;;;;;;;;5016392;28;20287;-66
2024/01/02 09:50:34;;;;;;;2.25;1.10;;;;;;;;;;5016351;28;20276;-66
2024/01/02 09:53:17;;;;;;;1.48;0.90;;;;;;;;;;5015814;28;20261;-66
2024/01/02 09:55:50;;;;;;;2.05;1.10;;;;;;;;;;5015972;28;20289;-66
2024/01/02 09:58:21;;;;;;;2.28;1.00;;;;;;;;;;5016348;28;20233;-66
2024/01/02 10:00:54;;;;;;;2.25;1.10;;;;;;;;;;5015696;28;20230;-65
2024/01/02 10:03:31;;;;;;;1.23;0.93;;;;;;;;;;5015810;28;20588;-66
2024/01/02 10:06:08;;;;;;;1.60;0.90;;;;;;;;;;5015781;28;20206;-66
2024/01/02 10:08:47;;;;;;;1.92;1.15;;;;;;;;;;5016023;28;20213;-66
2024/01/02 10:11:20;;;;;;;1.42;1.17;;;;;;;;;;5016029;28;20202;-66
2024/01/02 10:13:49;;;;;;;1.63;0.80;;;;;;;;;;5015153;28;20218;-66
2024/01/02 10:16:24;;;;;;;2.08;1.10;;;;;;;;;;5016175;28;20210;-66
2024/01/02 10:19:00;;;;;;;1.67;1.02;;;;;;;;;;5015639;28;20236;-66
2024/01/02 10:21:30;;;;;;;0.90;0.77;;;;;;;;;;5015295;28;20246;-65
2024/01/02 10:24:05;;;;;;;1.60;0.90;;;;;;;;;;5015006;28;20264;-66
2024/01/02 10:26:34;;;;;;;1.20;0.90;;;;;;;;;;5015390;28;20216;-66
2024/01/02 10:29:05;;;;;;;1.00;0.85;;;;;;;;;;5015713;28;20207;-66
2024/01/02 10:31:37;;;;;;;1.38;0.90;;;;;;;;;;5015653;28;20289;-66
2024/01/02 10:34:07;;;;;;;1.17;0.90;;;;;;;;;;5015461;28;20722;-66
2024/01/02 10:36:39;;;;;;;1.63;1.00;;;;;;;;;;5015666;28;20272;-66
2024/01/02 10:39:10;;;;;;;1.40;0.90;;;;;;;;;;5015938;28;20202;-66
2024/01/02 10:41:46;;;;;;;1.45;0.95;;;;;;;;;;5015436;28;20248;-66
2024/01/02 10:44:18;;;;;;;1.60;0.80;;;;;;;;;;5015842;28;20213;-66
2024/01/02 10:46:48;;;;;;;1.35;0.98;;;;;;;;;;5015054;28;20492;-66
2024/01/02 10:49:25;;;;;;;1.42;0.82;;;;;;;;;;5015020;28;20203;-66
2024/01/02 10:51:58;;;;;;;1.88;1.15;;;;;;;;;;5016052;28;20210;-66
2024/01/02 10:54:30;;;;;;;1.50;0.90;;;;;;;;;;5015441;28;20206;-66
2024/01/02 10:57:03;;;;;;;1.77;1.05;;;;;;;;;;5015345;28;20207;-66
2024/01/02 10:59:43;;;;;;;1.35;0.93;;;;;;;;;;5015545;28;20242;-66
2024/01/02 11:02:14;;;;;;;1.30;0.80;;;;;;;;;;5015088;28;20253;-66
2024/01/02 11:04:48;;;;;;;1.08;0.80;;;;;;;;;;5015346;28;20217;-66
2024/01/02 11:07:18;;;;;;;1.20;0.88;;;;;;;;;;5018198;28;20201;-66
2024/01/02 11:09:49;;;;;;;1.25;0.82;;;;;;;;;;5018622;28;20207;-66
2024/01/02 11:12:18;;;;;;;1.30;0.90;;;;;;;;;;5018365;28;20247;-66
2024/01/02 11:14:47;;;;;;;1.10;0.70;;;;;;;;;;5017938;28;20264;-66
2024/01/02 11:17:15;;;;;;;1.63;0.77;;;;;;;;;;5018058;28;20313;-66
2024/01/02 11:19:46;;;;;;;0.82;0.60;;;;;;;;;;5013453;28;20664;-66
2024/01/02 11:22:16;;;;;;;1.20;1.08;;;;;;;;;;4999683;28;20231;-66
2024/01/02 11:24:47;;;;;;;1.77;0.90;;;;;;;;;;4999098;28;20203;-66
2024/01/02 11:27:16;;;;;;;1.27;0.73;;;;;;;;;;4998479;28;20238;-66
2024/01/02 11:29:43;;;;;;;1.25;0.60;;;;;;;;;;4998258;28;20207;-66
2024/01/02 11:32:14;;;;;;;1.05;0.80;;;;;;;;;;4998755;28;20270;-66
2024/01/02 11:34:50;;;;;;;1.08;0.80;;;;;;;;;;4998956;28;20215;-66
2024/01/02 11:37:29;;;;;;;1.17;0.90;;;;;;;;;;4998980;28;20756;-66
2024/01/02 11:40:03;;;;;;;0.80;0.70;;;;;;;;;;4998582;28;20237;-66
2024/01/02 11:42:35;;;;;;;1.30;0.77;;;;;;;;;;4997872;28;20233;-66
2024/01/02 11:45:08;;;;;;;1.27;0.70;;;;;;;;;;4997930;28;20218;-66
2024/01/02 11:47:39;;;;;;;1.55;0.80;;;;;;;;;;4998234;28;20211;-66
2024/01/02 11:50:09;;;;;;;1.33;0.70;;;;;;;;;;4998481;28;20218;-66
2024/01/02 11:52:47;;;;;;;1.00;0.75;;;;;;;;;;4998364;28;20485;-66
2024/01/02 11:55:19;;;;;;;1.00;0.65;;;;;;;;;;4997771;28;20210;-65
2024/01/02 11:57:52;;;;;;;0.70;0.60;;;;;;;;;;4997510;28;20227;-65
2024/01/02 12:00:24;;;;;;;1.10;0.60;;;;;;;;;;4997857;28;20226;-65
2024/01/02 12:02:59;;;;;;;0.93;0.60;;;;;;;;;;4997169;28;20227;-65
2024/01/02 12:05:34;;;;;;;0.60;0.57;;;;;;;;;;4997417;28;20214;-65
2024/01/02 12:08:03;;;;;;;1.20;0.70;;;;;;;;;;4997620;28;20281;-65
2024/01/02 12:10:37;;;;;;;0.68;0.60;;;;;;;;;;4997913;28;20450;-66
2024/01/02 12:13:11;;;;;;;0.73;0.52;;;;;;;;;;4998006;28;20211;-66
2024/01/02 12:15:41;;;;;;;0.80;0.60;;;;;;;;;;4997846;28;20290;-66
2024/01/02 12:18:11;;;;;;;0.90;0.70;;;;;;;;;;4996953;28;20247;-66
2024/01/02 12:20:41;;;;;;;1.23;0.70;;;;;;;;;;4997029;28;20217;-66
2024/01/02 12:23:09;;;;;;;1.20;0.52;;;;;;;;;;4997314;28;20254;-66
2024/01/02 12:25:39;;;;;;;0.82;0.60;;;;;;;;;;4997271;28;20609;-66
2024/01/02 12:28:07;;;;;;;1.10;0.60;;;;;;;;;;4997353;28;20207;-66
2024/01/02 12:30:37;;;;;;;0.93;0.63;;;;;;;;;;4997866;28;20207;-66
2024/01/02 12:33:18;;;;;;;1.05;0.55;;;;;;;;;;4997846;28;20500;-66
2024/01/02 12:35:58;;;;;;;0.50;0.50;;;;;;;;;;4998054;28;20540;-66
2024/01/02 12:38:26;;;;;;;0.73;0.60;;;;;;;;;;4997073;28;20523;-66
2024/01/02 12:40:57;;;;;;;0.77;0.50;;;;;;;;;;4997239;28;20219;-66
2024/01/02 12:43:29;;;;;;;0.85;0.65;;;;;;;;;;4997139;28;20775;-66
2024/01/02 12:46:00;;;;;;;0.70;0.55;;;;;;;;;;4997112;28;20207;-66
2024/01/02 12:48:28;;;;;;;0.73;0.68;;;;;;;;;;4997349;28;20219;-65
2024/01/02 12:50:56;;;;;;;0.98;0.50;;;;;;;;;;4996806;28;20573;-65
2024/01/02 12:53:27;;;;;;;0.70;0.70;;;;;;;;;;4996497;28;20199;-65
2024/01/02 12:55:56;;;;;;;1.25;0.73;;;;;;;;;;4996560;28;20297;-65
2024/01/02 12:58:29;;;;;;;1.20;0.80;;;;;;;;;;4997156;28;20210;-66
2024/01/02 13:00:57;;;;;;;0.70;0.60;;;;;;;;;;4997320;28;20255;-66
2024/01/02 13:03:25;;;;;;;2.10;0.80;;;;;;;;;;4996344;28;20227;-66
2024/01/02 13:05:54;;;;;;;2.25;1.02;;;;;;;;;;4997028;28;20206;-66
2024/01/02 13:08:22;;;;;;;1.58;0.88;;;;;;;;;;4996433;28;20214;-65
2024/01/02 13:10:50;;;;;;;2.97;0.93;;;;;;;;;;4995713;28;20219;-66
2024/01/02 13:13:18;;;;;;;2.97;1.52;;;;;;;;;;4996073;28;20206;-66
2024/01/02 13:15:52;;;;;;;3.20;1.17;;;;;;;;;;4996498;28;20217;-66
2024/01/02 13:18:21;;;;;;;2.53;1.48;;;;;;;;;;4996391;28;20250;-66
2024/01/02 13:20:49;;;;;;;2.33;1.20;;;;;;;;;;4996244;28;20203;-66
2024/01/02 13:23:16;;;;;;;2.13;1.25;;;;;;;;;;4996315;28;20258;-66
2024/01/02 13:25:43;;;;;;;3.25;1.30;;;;;;;;;;4996526;28;20538;-66
2024/01/02 13:28:22;;;;;;;3.25;1.60;;;;;;;;;;4995737;28;20214;-66
2024/01/02 13:30:50;;;;;;;2.78;1.40;;;;;;;;;;4996041;28;20609;-65
2024/01/02 13:33:18;;;;;;;3.75;1.40;;;;;;;;;;4995495;28;20213;-66
2024/01/02 13:35:47;;;;;;;9.20;1.48;;;;;;;;;;4995509;28;20218;-66
2024/01/02 13:38:17;;;;;;;2.50;1.50;;;;;;;;;;4996210;28;20551;-66
2024/01/02 13:40:45;;;;;;;5.70;1.55;;;;;;;;;;4996175;28;20214;-66
2024/01/02 13:43:13;;;;;;;3.92;1.40;;;;;;;;;;4995187;28;20219;-66
2024/01/02 13:45:42;;;;;;;4.13;1.38;;;;;;;;;;4995704;28;20206;-65
2024/01/02 13:48:10;;;;;;;4.03;1.85;;;;;;;;;;4995362;28;20206;-65
2024/01/02 13:50:38;;;;;;;4.05;1.52;;;;;;;;;;4995749;28;20242;-65
2024/01/02 13:53:06;;;;;;;2.92;1.45;;;;;;;;;;4994828;28;20612;-65
2024/01/02 13:55:33;;;;;;;4.28;1.80;;;;;;;;;;4995891;28;20199;-65
2024/01/02 13:58:09;;;;;;;2.88;1.77;;;;;;;;;;4995771;28;20203;-65
2024/01/02 14:00:36;;;;;;;2.67;1.40;;;;;;;;;;4995361;28;20769;-65
2024/01/02 14:03:06;;;;;;;2.60;1.40;;;;;;;;;;4994303;28;20329;-66
2024/01/02 14:05:34;;;;;;;4.95;1.70;;;;;;;;;;4995465;28;20206;-66
2024/01/02 14:08:01;;;;;;;2.95;1.63;;;;;;;;;;4995586;28;20636;-66
2024/01/02 14:10:30;;;;;;;2.75;1.60;;;;;;;;;;4995519;28;20221;-66
2024/01/02 14:12:57;;;;;;;3.33;1.73;;;;;;;;;;4994986;28;20210;-66
2024/01/02 14:15:25;;;;;;;3.80;1.80;;;;;;;;;;4995306;28;20207;-66
2024/01/02 14:17:58;;;;;;;3.53;1.60;;;;;;;;;;4995878;28;20608;-66
2024/01/02 14:20:31;;;;;;;3.67;1.55;;;;;;;;;;4995207;28;20308;-66
2024/01/02 14:23:02;;;;;;;3.58;1.70;;;;;;;;;;4994985;28;20234;-66
2024/01/02 14:25:36;;;;;;;3.05;1.63;;;;;;;;;;4995403;28;20210;-66
2024/01/02 14:28:07;;;;;;;2.88;1.63;;;;;;;;;;4994948;28;20215;-66
2024/01/02 14:30:35;;;;;;;3.88;1.52;;;;;;;;;;4995357;28;20222;-66
2024/01/02 14:33:10;;;;;;;3.70;1.70;;;;;;;;;;4994725;28;20210;-66
2024/01/02 14:35:41;;;;;;;3.35;1.55;;;;;;;;;;4995201;28;20218;-65
2024/01/02 14:38:12;;;;;;;5.43;1.90;;;;;;;;;;4995167;28;20207;-65
2024/01/02 14:40:49;;;;;;;2.92;1.65;;;;;;;;;;4997347;28;20222;-66
2024/01/02 14:43:36;;;;;;;2.15;1.60;;;;;;;;;;4999140;28;20590;-67
2024/01/02 14:46:12;;;;;;;2.78;1.33;;;;;;;;;;4998712;28;20238;-66
2024/01/02 14:48:46;;;;;;;2.55;1.30;;;;;;;;;;4999130;28;20206;-65
2024/01/02 14:51:25;;;;;;;3.67;1.70;;;;;;;;;;4997441;28;20214;-66
2024/01/02 14:53:59;;;;;;;2.95;1.80;;;;;;;;;;4998586;28;20203;-65